createdAt,value
2023-04-02T00:05:50.217Z,5.55
2023-04-02T00:15:57.633Z,4.73
2023-04-02T00:25:59.138Z,5.93
2023-04-02T00:36:01.038Z,5.55
2023-04-02T00:46:10.696Z,7.07
2023-04-02T00:56:17.805Z,6.63
2023-04-02T01:06:20.348Z,7.25
2023-04-02T01:16:42.344Z,8.25
2023-04-02T01:26:52.991Z,5.13
2023-04-02T01:37:22.273Z,3.67
2023-04-02T01:47:27.386Z,4.60
2023-04-02T01:57:29.397Z,5.23
2023-04-02T02:07:30.946Z,6.80
2023-04-02T02:17:34.630Z,4.50
2023-04-02T02:27:48.109Z,4.10
2023-04-02T02:37:59.635Z,4.93
2023-04-02T02:48:02.711Z,5.60
2023-04-02T02:58:11.903Z,5.35
2023-04-02T03:08:53.620Z,6.27
2023-04-02T03:19:15.705Z,4.13
2023-04-02T03:29:27.826Z,5.45
2023-04-02T03:39:41.362Z,5.40
2023-04-02T03:49:56.414Z,8.23
2023-04-02T04:00:32.520Z,7.22
2023-04-02T04:10:35.062Z,7.17
2023-04-02T04:20:46.081Z,5.93
2023-04-02T04:31:01.882Z,8.35
2023-04-02T04:41:16.334Z,7.35
2023-04-02T04:51:29.181Z,8.70
2023-04-02T05:01:41.235Z,9.27
2023-04-02T05:11:47.880Z,11.20
2023-04-02T05:21:59.879Z,10.60
2023-04-02T05:32:16.023Z,9.03
2023-04-02T05:42:24.786Z,9.38
2023-04-02T05:52:31.567Z,9.63
2023-04-02T06:02:37.879Z,10.13
2023-04-02T06:12:45.228Z,6.65
2023-04-02T06:22:55.351Z,8.50
2023-04-02T06:32:57.316Z,5.60
2023-04-02T06:43:03.116Z,4.13
2023-04-02T06:53:09.682Z,5.68
2023-04-02T07:03:23.767Z,5.63
2023-04-02T07:13:25.827Z,5.67
2023-04-02T07:23:27.305Z,6.55
2023-04-02T07:33:30.432Z,6.20
2023-04-02T07:43:32.143Z,4.30
2023-04-02T07:53:35.769Z,7.85
2023-04-02T08:03:37.293Z,7.80
2023-04-02T08:13:39.190Z,5.70
2023-04-02T08:23:40.542Z,6.50
2023-04-02T08:33:42.047Z,7.43
2023-04-02T08:44:09.391Z,7.93
2023-04-02T08:54:43.539Z,7.57
2023-04-02T09:04:45.196Z,8.30
2023-04-02T09:15:04.678Z,6.90
2023-04-02T09:25:14.050Z,4.70
2023-04-02T09:35:26.875Z,6.32
2023-04-02T09:45:28.698Z,7.38
2023-04-02T09:55:31.095Z,4.30
2023-04-02T10:05:40.750Z,8.67
2023-04-02T10:15:53.539Z,6.20
2023-04-02T10:25:57.952Z,3.73
2023-04-02T10:36:08.711Z,5.40
2023-04-02T10:46:28.632Z,4.53
2023-04-02T10:56:44.058Z,6.40
2023-04-02T11:07:11.089Z,6.70
2023-04-02T11:17:16.678Z,6.32
2023-04-02T11:27:26.469Z,6.03
2023-04-02T11:37:36.513Z,5.90
2023-04-02T11:47:37.918Z,6.77
2023-04-02T11:58:00.264Z,7.03
2023-04-02T12:08:28.114Z,7.07
2023-04-02T12:18:29.716Z,6.73
2023-04-02T12:28:33.698Z,4.63
2023-04-02T12:39:15.947Z,3.47
2023-04-02T12:49:38.972Z,4.37
2023-04-02T12:59:41.786Z,4.90
2023-04-02T13:09:49.008Z,5.28
2023-04-02T13:19:50.974Z,5.20
2023-04-02T13:29:52.341Z,6.93
2023-04-02T13:39:53.868Z,7.72
2023-04-02T13:49:55.308Z,7.17
2023-04-02T13:59:56.654Z,5.90
2023-04-02T14:10:14.840Z,5.28
2023-04-02T14:20:54.379Z,4.10
2023-04-02T14:31:14.296Z,4.40
2023-04-02T14:41:34.170Z,5.13
2023-04-02T14:51:44.180Z,5.00
2023-04-02T15:01:49.818Z,5.10
2023-04-02T15:11:54.838Z,3.65
2023-04-02T15:21:59.065Z,6.40
2023-04-02T15:32:29.682Z,3.20
2023-04-02T15:42:38.992Z,5.40
2023-04-02T15:53:13.766Z,4.35
2023-04-02T16:03:29.834Z,6.00
2023-04-02T16:13:34.060Z,4.87
2023-04-02T16:23:38.322Z,4.93
2023-04-02T16:34:09.150Z,3.70
2023-04-02T16:44:55.864Z,3.83
2023-04-02T16:55:03.751Z,6.97
2023-04-02T17:05:32.522Z,3.70
2023-04-02T17:15:39.324Z,5.23
2023-04-02T17:26:09.210Z,4.65
2023-04-02T17:36:29.895Z,5.35
2023-04-02T17:46:51.704Z,5.10
2023-04-02T17:56:58.762Z,5.40
2023-04-02T18:07:18.217Z,6.13
2023-04-02T18:17:48.415Z,6.00
2023-04-02T18:27:58.749Z,6.77
2023-04-02T18:38:23.595Z,7.00
2023-04-02T18:49:03.677Z,5.60
2023-04-02T18:59:36.146Z,9.07
2023-04-02T19:09:42.721Z,9.90
2023-04-02T19:19:56.997Z,6.97
2023-04-02T19:29:58.392Z,9.80
2023-04-02T19:40:32.456Z,8.90
2023-04-02T19:50:33.928Z,8.20
2023-04-02T20:00:35.539Z,9.20
2023-04-02T20:10:37.564Z,9.23
2023-04-02T20:20:39.542Z,10.25
2023-04-02T20:30:41.062Z,9.53
2023-04-02T20:40:43.647Z,8.70
2023-04-02T20:50:46.223Z,8.15
2023-04-02T21:00:47.672Z,9.93
2023-04-02T21:10:49.169Z,8.20
2023-04-02T21:21:04.954Z,10.47
2023-04-02T21:31:13.307Z,11.60
2023-04-02T21:41:26.823Z,10.63
2023-04-02T21:51:30.555Z,11.67
2023-04-02T22:01:36.759Z,11.57
2023-04-02T22:11:41.871Z,9.97
2023-04-02T22:21:44.217Z,9.37
2023-04-02T22:31:45.807Z,9.77
2023-04-02T22:41:47.196Z,9.65
2023-04-02T22:51:48.781Z,8.80
2023-04-02T23:01:50.303Z,11.43
2023-04-02T23:11:51.794Z,14.32
2023-04-02T23:21:53.321Z,15.50
2023-04-02T23:31:54.796Z,14.10
2023-04-02T23:41:57.067Z,13.18
2023-04-02T23:51:58.452Z,27.23
